Granville, Ohio
Current Conditions -  °F | °C
As of 12:08 AM on Monday 20 Oct 2014 (Local Time) from KVTA Reporting Station
Haze Haze  
Wind Chill: 36°   Ceiling: Unl
Heat Index: 36°   Visibility: 5mi
Dew Point: 33°   Wind: 0mph
Humidity: 89%   Direction: NA
Pressure: 30.06"   Gusts: NA
Location:  40.07°N, 82.52°W
Report Text: KVTA 200408Z AUTO 00000KT 5SM BR CLR 02/01 A3006 RMK AO2 T00220006
Loading
Personal Weather Stations






























Interactive Weather Map
Tropical Storm Tracking
New forecast layout! Learn more

10-Day Weather Forecast

Advertisements
Track Severe Weather on mobile